TimeCDT,TemperatureF,Dew PointF,Humidity,Sea Level PressureIn,VisibilityMPH,Wind Direction,Wind SpeedMPH,Gust SpeedMPH,PrecipitationIn,Events,Conditions,WindDirDegrees,DateUTC
1:35 AM,84.2,75.2,74,29.94,10.0,South,12.7,-,N/A,,Mostly Cloudy,180,2013-06-19 06:35:00
1:53 AM,82.9,73.9,74,29.94,10.0,South,15.0,-,N/A,,Mostly Cloudy,180,2013-06-19 06:53:00
2:30 AM,82.4,73.4,74,29.93,10.0,South,12.7,-,N/A,,Scattered Clouds,170,2013-06-19 07:30:00
2:43 AM,82.4,73.4,74,29.92,10.0,South,13.8,-,N/A,,Mostly Cloudy,180,2013-06-19 07:43:00
2:53 AM,82.9,73.9,74,29.92,10.0,South,13.8,-,N/A,,Mostly Cloudy,170,2013-06-19 07:53:00
3:41 AM,82.4,73.4,74,29.92,10.0,South,13.8,19.6,N/A,,Scattered Clouds,180,2013-06-19 08:41:00
3:53 AM,82.9,73.9,74,29.92,10.0,South,11.5,-,N/A,,Scattered Clouds,180,2013-06-19 08:53:00
4:09 AM,82.4,73.4,74,29.92,10.0,South,12.7,-,N/A,,Mostly Cloudy,180,2013-06-19 09:09:00
4:18 AM,82.4,73.4,74,29.92,10.0,South,12.7,-,N/A,,Scattered Clouds,180,2013-06-19 09:18:00
4:28 AM,82.4,73.4,74,29.92,10.0,South,10.4,-,N/A,,Mostly Cloudy,180,2013-06-19 09:28:00
4:37 AM,82.4,73.4,74,29.92,10.0,South,11.5,18.4,N/A,,Scattered Clouds,190,2013-06-19 09:37:00
4:53 AM,82.9,73.9,74,29.93,10.0,South,11.5,-,N/A,,Scattered Clouds,180,2013-06-19 09:53:00
5:00 AM,82.4,73.4,74,29.93,10.0,South,12.7,-,N/A,,Mostly Cloudy,190,2013-06-19 10:00:00
5:53 AM,82.9,75.0,77,29.94,10.0,SSW,12.7,-,N/A,,Mostly Cloudy,200,2013-06-19 10:53:00
6:05 AM,82.4,73.4,74,29.94,10.0,SSW,10.4,-,N/A,,Scattered Clouds,200,2013-06-19 11:05:00
6:53 AM,82.9,75.0,77,29.95,10.0,SSW,9.2,-,N/A,,Scattered Clouds,200,2013-06-19 11:53:00
7:28 AM,84.2,75.2,74,29.96,10.0,SSW,10.4,-,N/A,,Mostly Cloudy,200,2013-06-19 12:28:00
7:37 AM,84.2,73.4,70,29.96,10.0,SSW,11.5,-,N/A,,Scattered Clouds,200,2013-06-19 12:37:00
7:53 AM,84.0,73.9,72,29.96,10.0,South,9.2,-,N/A,,Scattered Clouds,190,2013-06-19 12:53:00
8:53 AM,84.9,75.0,72,29.98,10.0,SSW,10.4,-,N/A,,Partly Cloudy,200,2013-06-19 13:53:00
9:53 AM,86.0,73.9,67,29.99,10.0,South,12.7,-,N/A,,Scattered Clouds,190,2013-06-19 14:53:00
10:53 AM,88.0,73.9,63,29.98,10.0,South,10.4,-,N/A,,Clear,190,2013-06-19 15:53:00
11:53 AM,89.1,73.0,59,29.99,10.0,South,9.2,-,N/A,,Clear,190,2013-06-19 16:53:00
12:53 PM,89.1,73.0,59,29.98,10.0,SSW,11.5,-,N/A,,Clear,200,2013-06-19 17:53:00
1:53 PM,89.1,73.9,61,29.97,10.0,SSW,11.5,18.4,N/A,,Clear,200,2013-06-19 18:53:00
2:53 PM,90.0,73.9,59,29.96,10.0,South,12.7,-,N/A,,Clear,180,2013-06-19 19:53:00
3:53 PM,90.0,70.0,52,29.95,10.0,South,11.5,-,N/A,,Clear,190,2013-06-19 20:53:00
4:53 PM,91.0,73.9,57,29.95,10.0,South,10.4,-,N/A,,Clear,190,2013-06-19 21:53:00
5:53 PM,90.0,73.9,59,29.94,10.0,SSE,12.7,-,N/A,,Clear,160,2013-06-19 22:53:00
6:53 PM,88.0,73.9,63,29.95,10.0,SSE,11.5,-,N/A,,Partly Cloudy,150,2013-06-19 23:53:00
7:53 PM,86.0,73.9,67,29.96,10.0,SSE,12.7,-,N/A,,Clear,150,2013-06-20 00:53:00
8:53 PM,84.9,73.9,69,29.97,10.0,SSE,12.7,-,N/A,,Clear,160,2013-06-20 01:53:00
9:53 PM,84.0,73.9,72,29.98,10.0,SSE,11.5,-,N/A,,Clear,160,2013-06-20 02:53:00
10:53 PM,84.0,73.9,72,29.99,10.0,South,10.4,-,N/A,,Partly Cloudy,170,2013-06-20 03:53:00
11:53 PM,84.0,73.9,72,29.99,10.0,South,12.7,-,N/A,,Partly Cloudy,170,2013-06-20 04:53:00